Time;durP1;ratioP1;P1;durP2;ratioP2;P2;SDS_P1;SDS_P2;PMS_P1;PMS_P2;Temp;Humidity;BMP_temperature;BMP_pressure;BME280_temperature;BME280_humidity;BME280_pressure;Samples;Min_cycle;Max_cycle;Signal;HPM_P1;HPM_P2
2022/01/30 00:00:17;;;;;;;5.93;5.43;;;;;;;6.40;87.62;99848.06;2618423;54;20037;-70
2022/01/30 00:02:46;;;;;;;6.80;5.88;;;;;;;6.47;87.63;99839.63;2617990;47;20034;-70
2022/01/30 00:05:19;;;;;;;6.40;5.57;;;;;;;6.52;87.70;99837.41;2618202;54;20034;-72
2022/01/30 00:07:48;;;;;;;6.90;5.65;;;;;;;6.57;87.71;99843.91;2618404;54;20034;-70
2022/01/30 00:10:18;;;;;;;6.32;5.70;;;;;;;6.64;88.19;99846.78;2618435;54;20035;-70
2022/01/30 00:12:52;;;;;;;6.70;6.10;;;;;;;6.65;87.89;99835.28;2618502;54;20042;-69
2022/01/30 00:15:34;;;;;;;6.78;5.55;;;;;;;6.70;87.98;99835.72;2618000;54;20039;-70
2022/01/30 00:18:14;;;;;;;6.20;5.60;;;;;;;6.75;88.13;99833.50;2618344;54;20066;-69
2022/01/30 00:20:59;;;;;;;6.43;5.47;;;;;;;6.81;88.22;99832.06;2618957;39;20458;-69
2022/01/30 00:23:31;;;;;;;6.30;5.43;;;;;;;6.83;88.47;99825.72;2618181;48;20029;-70
2022/01/30 00:26:03;;;;;;;6.38;5.78;;;;;;;6.88;88.08;99831.38;2617742;47;20034;-70
2022/01/30 00:28:33;;;;;;;6.72;5.47;;;;;;;6.89;88.03;99830.38;2617937;47;20069;-70
2022/01/30 00:31:05;;;;;;;6.00;5.40;;;;;;;6.91;88.36;99830.25;2618299;54;20026;-70
2022/01/30 00:33:34;;;;;;;8.23;5.93;;;;;;;6.94;87.93;99827.34;2618261;54;20038;-70
2022/01/30 00:36:07;;;;;;;7.28;5.97;;;;;;;6.96;87.84;99833.28;2618275;54;20090;-70
2022/01/30 00:38:36;;;;;;;7.10;6.35;;;;;;;6.94;87.73;99829.97;2618179;54;20038;-70
2022/01/30 00:41:06;;;;;;;7.05;6.28;;;;;;;6.90;87.69;99839.94;2618193;54;20042;-71
2022/01/30 00:43:41;;;;;;;9.90;7.18;;;;;;;6.90;87.55;99832.06;2617604;47;20030;-70
2022/01/30 00:46:11;;;;;;;7.82;6.30;;;;;;;6.87;88.00;99848.13;2617393;54;20027;-70
2022/01/30 00:48:41;;;;;;;7.78;6.03;;;;;;;6.84;88.09;99837.06;2617946;54;20050;-71
2022/01/30 00:51:13;;;;;;;9.18;6.68;;;;;;;6.82;87.84;99846.91;2617868;47;20038;-71
2022/01/30 00:53:43;;;;;;;8.63;5.95;;;;;;;6.82;88.26;99846.91;2617637;47;20042;-71
2022/01/30 00:56:12;;;;;;;8.32;6.35;;;;;;;6.81;87.89;99834.72;2617533;47;20039;-70
2022/01/30 00:58:42;;;;;;;10.50;6.85;;;;;;;6.83;88.31;99830.16;2617668;47;20026;-70
2022/01/30 01:01:13;;;;;;;7.25;6.20;;;;;;;6.82;88.32;99828.50;2618027;39;20120;-68
2022/01/30 01:03:44;;;;;;;9.55;6.30;;;;;;;6.81;88.27;99826.81;2618507;31;20506;-69
2022/01/30 01:06:16;;;;;;;9.43;6.63;;;;;;;6.78;88.08;99829.75;2617525;54;20038;-70
2022/01/30 01:08:53;;;;;;;9.88;5.82;;;;;;;6.79;87.86;99821.72;2618332;54;20031;-69
2022/01/30 01:11:54;;;;;;;10.73;6.50;;;;;;;6.77;87.91;99822.81;2618203;54;20129;-70
2022/01/30 01:25:19;;;;;;;7.00;6.13;;;;;;;6.74;88.42;99852.03;2617514;47;20558;-70
2022/01/30 01:27:49;;;;;;;9.68;6.63;;;;;;;6.72;88.59;99867.94;2618580;39;20450;-69
2022/01/30 01:30:19;;;;;;;9.98;6.88;;;;;;;6.74;88.44;99870.44;2617526;47;20030;-69
2022/01/30 01:32:49;;;;;;;10.02;6.85;;;;;;;6.71;88.32;99871.53;2618151;54;20574;-69
2022/01/30 01:35:20;;;;;;;11.25;7.15;;;;;;;6.70;88.76;99868.09;2618841;39;20435;-69
2022/01/30 01:37:54;;;;;;;10.57;8.15;;;;;;;6.72;88.25;99867.09;2618312;54;20037;-69
2022/01/30 01:40:24;;;;;;;12.80;8.02;;;;;;;6.68;88.21;99871.81;2617791;54;20034;-70
2022/01/30 01:42:55;;;;;;;12.55;8.35;;;;;;;6.69;88.38;99878.72;2617719;47;20035;-69
2022/01/30 01:45:27;;;;;;;16.27;8.10;;;;;;;6.67;88.10;99876.25;2618489;54;20246;-69
2022/01/30 01:47:59;;;;;;;14.73;7.90;;;;;;;6.65;87.93;99870.31;2617692;47;20043;-71
2022/01/30 01:50:38;;;;;;;8.07;6.65;;;;;;;6.62;88.27;99875.84;2618133;54;20039;-70
2022/01/30 01:53:15;;;;;;;10.75;7.13;;;;;;;6.60;88.38;99879.56;2618770;51;20053;-70
2022/01/30 01:55:46;;;;;;;11.80;7.63;;;;;;;6.53;88.38;99881.09;2619466;54;20026;-69
2022/01/30 01:58:26;;;;;;;10.95;7.75;;;;;;;6.50;88.31;99876.97;2620068;51;20138;-70
2022/01/30 02:01:19;;;;;;;13.80;7.47;;;;;;;6.45;88.21;99881.81;2619165;47;20046;-70
2022/01/30 02:03:49;;;;;;;11.85;7.15;;;;;;;6.43;87.87;99881.13;2620372;54;20042;-71
2022/01/30 02:06:21;;;;;;;10.55;6.78;;;;;;;6.37;88.40;99873.81;2620317;54;20034;-72
2022/01/30 02:08:57;;;;;;;10.68;6.88;;;;;;;6.36;87.92;99872.13;2621104;47;20669;-70
2022/01/30 02:11:35;;;;;;;14.90;6.72;;;;;;;6.33;88.51;99873.25;2620815;54;20030;-71
2022/01/30 02:14:33;;;;;;;14.93;6.70;;;;;;;6.31;88.56;99880.41;2622564;39;20497;-71
2022/01/30 02:28:09;;;;;;;10.80;6.25;;;;;;;6.31;87.59;99866.47;2621512;39;20437;-69
2022/01/30 02:30:47;;;;;;;10.27;5.60;;;;;;;6.30;87.49;99864.81;2621078;54;20066;-70
2022/01/30 02:33:16;;;;;;;14.80;5.85;;;;;;;6.28;87.55;99858.88;2620308;54;20585;-70
2022/01/30 02:35:48;;;;;;;8.82;5.60;;;;;;;6.28;87.77;99859.69;2618477;54;20041;-70
2022/01/30 02:38:22;;;;;;;13.52;5.22;;;;;;;6.27;87.55;99854.59;2617954;47;20030;-69
2022/01/30 02:40:55;;;;;;;11.25;4.72;;;;;;;6.27;87.45;99860.66;2617812;54;20038;-70
2022/01/30 02:43:29;;;;;;;10.07;5.03;;;;;;;6.28;86.86;99853.59;2618291;54;20030;-69
2022/01/30 02:46:09;;;;;;;13.52;4.35;;;;;;;6.27;86.28;99865.09;2617500;47;20034;-69
2022/01/30 02:48:47;;;;;;;13.88;3.97;;;;;;;6.22;85.90;99864.69;2617698;47;20093;-69
2022/01/30 02:51:19;;;;;;;10.93;4.25;;;;;;;6.25;85.16;99861.78;2617606;47;20050;-68
2022/01/30 02:54:03;;;;;;;19.85;4.60;;;;;;;6.22;85.09;99865.50;2617997;39;20426;-70
2022/01/30 02:56:37;;;;;;;19.00;5.00;;;;;;;6.19;83.97;99868.41;2617459;47;20038;-70
2022/01/30 02:59:07;;;;;;;11.43;4.70;;;;;;;6.13;83.76;99864.53;2617407;54;20030;-70
2022/01/30 03:01:36;;;;;;;11.32;3.67;;;;;;;6.08;83.09;99871.16;2617282;54;20592;-70
2022/01/30 03:04:07;;;;;;;15.27;3.90;;;;;;;6.04;83.19;99861.91;2617082;54;20083;-69
2022/01/30 03:06:37;;;;;;;19.42;4.38;;;;;;;6.02;82.38;99858.59;2617318;54;20034;-70
2022/01/30 03:09:12;;;;;;;14.70;3.55;;;;;;;5.99;81.98;99858.88;2617179;47;20031;-70
2022/01/30 03:11:42;;;;;;;17.02;3.90;;;;;;;5.94;81.20;99867.97;2617451;47;20027;-70
2022/01/30 03:14:11;;;;;;;18.23;4.53;;;;;;;5.89;80.93;99856.22;2617885;54;20022;-70
2022/01/30 03:16:41;;;;;;;18.98;4.85;;;;;;;5.86;80.93;99862.56;2616593;47;20039;-69
2022/01/30 03:19:11;;;;;;;16.73;4.07;;;;;;;5.79;80.81;99861.44;2616658;54;20034;-69
2022/01/30 03:21:41;;;;;;;16.05;3.67;;;;;;;5.77;80.58;99873.88;2616446;54;20098;-70
2022/01/30 03:24:13;;;;;;;13.75;4.57;;;;;;;5.73;80.73;99877.72;2616244;54;20035;-71
2022/01/30 03:26:44;;;;;;;18.77;3.72;;;;;;;5.69;80.04;99885.03;2616369;47;20113;-71
2022/01/30 03:29:20;;;;;;;16.60;4.38;;;;;;;5.76;79.52;99897.63;2616972;31;20518;-70
2022/01/30 03:31:50;;;;;;;13.77;3.35;;;;;;;5.78;79.33;99906.19;2616471;54;20635;-70
2022/01/30 03:34:19;;;;;;;18.05;3.88;;;;;;;5.80;78.65;99902.47;2616317;47;20034;-71
2022/01/30 03:36:53;;;;;;;15.00;3.25;;;;;;;5.79;78.47;99908.66;2616793;39;20453;-70
2022/01/30 03:39:27;;;;;;;14.35;4.43;;;;;;;5.75;78.52;99912.53;2616450;54;20027;-70
2022/01/30 03:41:58;;;;;;;15.57;4.38;;;;;;;5.72;78.72;99918.88;2616349;47;20026;-70
2022/01/30 03:44:28;;;;;;;12.30;3.60;;;;;;;5.69;78.53;99918.31;2616758;47;20019;-70
2022/01/30 03:46:58;;;;;;;17.40;4.22;;;;;;;5.67;78.65;99925.47;2617180;46;20042;-70
2022/01/30 03:49:29;;;;;;;13.57;3.90;;;;;;;5.69;78.68;99931.44;2618039;54;20436;-71
2022/01/30 03:51:59;;;;;;;23.63;4.10;;;;;;;5.64;78.03;99937.09;2618558;46;20110;-71
2022/01/30 03:54:37;;;;;;;14.55;3.90;;;;;;;5.69;78.08;99936.69;2618966;54;20050;-71
2022/01/30 03:57:08;;;;;;;11.32;3.95;;;;;;;5.72;77.30;99939.03;2619414;47;20034;-70
2022/01/30 03:59:40;;;;;;;16.67;4.30;;;;;;;5.74;77.37;99947.59;2621560;54;20038;-70
2022/01/30 04:02:09;;;;;;;14.52;3.70;;;;;;;5.75;77.48;99948.44;2624883;47;20074;-71
2022/01/30 04:04:39;;;;;;;20.40;4.32;;;;;;;5.77;77.97;99949.97;2618197;47;20026;-72
2022/01/30 04:07:11;;;;;;;22.55;4.10;;;;;;;5.78;78.29;99956.88;2618431;47;20041;-71
2022/01/30 04:09:52;;;;;;;16.70;3.90;;;;;;;5.76;78.29;99953.56;2618584;54;20031;-72
2022/01/30 04:12:45;;;;;;;17.77;4.30;;;;;;;5.77;78.72;99949.13;2618504;54;20039;-71
2022/01/30 04:15:34;;;;;;;18.30;4.80;;;;;;;5.80;79.00;99956.75;2625880;54;20055;-71
2022/01/30 04:18:23;;;;;;;17.48;4.70;;;;;;;5.80;79.12;99954.13;2626412;54;20049;-72
2022/01/30 04:21:13;;;;;;;16.30;4.53;;;;;;;5.84;79.08;99956.34;2626686;54;20605;-70
2022/01/30 04:24:15;;;;;;;14.80;4.32;;;;;;;5.87;79.45;99961.31;2626542;46;20038;-70
2022/01/30 04:27:00;;;;;;;18.83;5.30;;;;;;;5.89;79.24;99956.75;2625966;51;20079;-71
2022/01/30 04:29:46;;;;;;;16.88;4.22;;;;;;;5.93;79.47;99965.22;2626155;47;20038;-71
2022/01/30 04:32:40;;;;;;;15.65;4.32;;;;;;;5.93;79.31;99971.31;2631236;39;20490;-70
2022/01/30 04:35:46;;;;;;;20.77;4.85;;;;;;;5.91;78.99;99973.19;2625785;54;20723;-70
2022/01/30 04:38:51;;;;;;;15.73;4.75;;;;;;;5.94;78.87;99969.50;2619219;39;20602;-72
2022/01/30 04:57:36;;;;;;;17.88;4.05;;;;;;;5.82;77.51;99986.28;2617954;50;20034;-71
2022/01/30 05:00:35;;;;;;;22.40;4.97;;;;;;;5.84;77.28;99994.88;2618084;47;20030;-72
2022/01/30 05:03:35;;;;;;;11.05;3.25;;;;;;;5.80;76.63;99989.06;2620059;39;20434;-71
2022/01/30 05:06:32;;;;;;;19.45;4.78;;;;;;;5.74;76.20;99991.38;2619081;39;20430;-71
2022/01/30 05:09:25;;;;;;;13.57;4.35;;;;;;;5.68;76.05;99990.94;2619600;54;20061;-72
2022/01/30 05:12:15;;;;;;;15.15;4.47;;;;;;;5.68;76.19;99992.75;2619529;54;20034;-71
2022/01/30 05:15:05;;;;;;;18.70;4.93;;;;;;;5.71;75.92;99995.09;2617164;54;20985;-65
2022/01/30 05:17:56;;;;;;;13.82;3.95;;;;;;;5.70;75.70;99991.63;2618234;54;20057;-65
2022/01/30 05:20:59;;;;;;;15.57;4.88;;;;;;;5.67;75.30;99996.31;2617969;54;20041;-66
2022/01/30 05:23:40;;;;;;;13.15;4.60;;;;;;;5.66;75.20;99995.47;2618138;51;20037;-64
2022/01/30 05:26:16;;;;;;;21.45;4.35;;;;;;;5.67;74.78;100004.19;2617757;54;20034;-62
2022/01/30 05:29:06;;;;;;;16.25;4.40;;;;;;;5.67;74.99;100001.56;2617870;47;20565;-64
2022/01/30 05:31:47;;;;;;;16.25;3.97;;;;;;;5.64;74.65;100015.78;2617815;47;20554;-63
2022/01/30 05:34:37;;;;;;;13.13;3.60;;;;;;;5.63;74.06;100029.00;2617711;51;20593;-65
2022/01/30 05:37:30;;;;;;;16.85;4.32;;;;;;;5.60;74.24;100034.53;2617526;54;20061;-64
2022/01/30 05:40:19;;;;;;;16.05;4.82;;;;;;;5.60;74.04;100034.53;2618580;54;20062;-65
2022/01/30 05:43:08;;;;;;;17.40;4.10;;;;;;;5.57;73.52;100033.00;2623413;39;20402;-64
2022/01/30 05:45:44;;;;;;;13.77;3.88;;;;;;;5.55;73.73;100032.31;2620693;54;20038;-68
2022/01/30 05:48:34;;;;;;;9.63;2.97;;;;;;;5.56;73.36;100041.00;2621391;54;20041;-65
2022/01/30 05:51:39;;;;;;;13.20;3.72;;;;;;;5.51;73.27;100046.66;2622151;51;20056;-66
2022/01/30 05:54:16;;;;;;;13.52;3.80;;;;;;;5.53;73.04;100047.34;2622541;47;20026;-65
2022/01/30 05:56:46;;;;;;;11.85;3.35;;;;;;;5.52;73.08;100045.69;2622213;47;20023;-65
2022/01/30 05:59:19;;;;;;;12.25;3.60;;;;;;;5.52;72.78;100055.34;2623278;54;20038;-65
2022/01/30 06:02:06;;;;;;;13.18;3.47;;;;;;;5.52;72.77;100056.19;2622187;51;20041;-65
2022/01/30 06:04:36;;;;;;;18.20;4.15;;;;;;;5.46;73.00;100054.06;2621799;47;20085;-64
2022/01/30 06:07:10;;;;;;;10.65;3.38;;;;;;;5.42;72.45;100055.28;2621890;54;20045;-64
2022/01/30 06:09:40;;;;;;;16.02;3.30;;;;;;;5.44;72.48;100064.69;2621022;54;20646;-64
2022/01/30 06:12:11;;;;;;;11.48;2.95;;;;;;;5.45;72.81;100071.59;2618701;54;20035;-64
2022/01/30 06:14:45;;;;;;;15.50;4.03;;;;;;;5.47;72.75;100082.81;2617722;54;20537;-67
2022/01/30 06:17:24;;;;;;;10.68;3.08;;;;;;;5.44;72.93;100087.47;2617341;49;20061;-66
2022/01/30 06:19:59;;;;;;;14.15;4.65;;;;;;;5.42;73.35;100086.75;2618459;54;20038;-65
2022/01/30 06:22:50;;;;;;;14.23;3.65;;;;;;;5.44;73.01;100093.53;2618560;54;20065;-65
2022/01/30 06:25:38;;;;;;;19.05;3.58;;;;;;;5.36;73.22;100084.66;2618545;54;20033;-64
2022/01/30 06:28:26;;;;;;;17.48;4.40;;;;;;;5.25;72.92;100092.56;2619374;54;20067;-65
2022/01/30 06:31:32;;;;;;;16.63;4.60;;;;;;;5.22;73.16;100088.41;2618619;39;20787;-64
2022/01/30 06:34:20;;;;;;;13.35;4.43;;;;;;;5.22;73.69;100084.00;2618793;54;20045;-66
2022/01/30 06:37:16;;;;;;;13.15;4.38;;;;;;;5.17;73.04;100091.41;2618079;54;20054;-64
2022/01/30 06:39:56;;;;;;;10.88;3.40;;;;;;;5.10;73.35;100092.03;2617926;47;20031;-65
2022/01/30 06:42:58;;;;;;;14.93;4.45;;;;;;;5.07;73.39;100108.84;2618562;54;20046;-64
2022/01/30 06:46:05;;;;;;;14.77;4.30;;;;;;;5.04;73.47;100116.13;2617060;54;20074;-64
2022/01/30 06:49:00;;;;;;;12.63;5.00;;;;;;;5.01;73.61;100124.25;2617279;54;20142;-65
2022/01/30 06:51:49;;;;;;;18.77;4.55;;;;;;;5.02;73.58;100126.75;2618544;39;20518;-64
2022/01/30 06:54:41;;;;;;;22.38;4.65;;;;;;;5.02;73.79;100134.63;2617866;54;20569;-66
2022/01/30 06:57:31;;;;;;;12.73;4.30;;;;;;;5.04;73.83;100126.63;2617803;54;20050;-65
2022/01/30 07:00:40;;;;;;;16.63;4.60;;;;;;;5.06;73.22;100132.56;2617028;54;20030;-65
2022/01/30 07:03:28;;;;;;;12.48;4.00;;;;;;;5.07;73.13;100132.44;2616916;54;20060;-67
2022/01/30 07:06:36;;;;;;;16.90;6.40;;;;;;;5.05;73.46;100129.09;2616884;54;20066;-65
2022/01/30 07:09:06;;;;;;;16.63;5.80;;;;;;;4.98;73.43;100133.19;2616947;54;20057;-66
2022/01/30 07:11:35;;;;;;;15.60;4.60;;;;;;;4.94;73.63;100142.28;2617422;54;20069;-65
2022/01/30 07:14:08;;;;;;;19.30;5.30;;;;;;;4.92;73.92;100137.13;2619032;31;20495;-65
2022/01/30 07:16:37;;;;;;;11.18;3.78;;;;;;;4.86;73.73;100147.28;2618043;54;20110;-65
2022/01/30 07:19:07;;;;;;;11.43;3.75;;;;;;;4.81;73.52;100145.00;2618253;54;20107;-65
2022/01/30 07:21:36;;;;;;;18.00;3.70;;;;;;;4.79;73.43;100146.09;2618956;54;20038;-66
2022/01/30 07:24:07;;;;;;;14.50;3.40;;;;;;;4.77;73.16;100148.00;2619532;39;20426;-65
2022/01/30 07:26:37;;;;;;;11.27;3.40;;;;;;;4.71;71.65;100147.56;2619069;54;20038;-65
2022/01/30 07:29:09;;;;;;;13.65;3.60;;;;;;;4.76;71.30;100149.78;2619034;54;20077;-64
2022/01/30 07:31:39;;;;;;;11.75;3.10;;;;;;;4.82;70.47;100151.13;2619283;54;20052;-64
2022/01/30 07:34:08;;;;;;;11.88;3.05;;;;;;;4.87;69.69;100155.03;2619237;54;20045;-64
2022/01/30 07:36:41;;;;;;;14.82;4.88;;;;;;;4.92;69.39;100157.25;2619036;54;20042;-65
2022/01/30 07:39:15;;;;;;;17.35;6.10;;;;;;;4.91;68.33;100158.22;2619151;54;20039;-65
2022/01/30 07:41:45;;;;;;;13.27;3.63;;;;;;;4.90;67.50;100164.44;2618390;54;20034;-64
2022/01/30 07:44:20;;;;;;;23.60;3.55;;;;;;;4.93;66.40;100172.84;2618554;47;20465;-64
2022/01/30 07:46:51;;;;;;;20.58;3.63;;;;;;;4.97;66.27;100176.91;2618527;54;20055;-65
2022/01/30 07:49:20;;;;;;;15.75;3.60;;;;;;;5.05;66.08;100180.69;2618558;54;20159;-65
2022/01/30 07:51:50;;;;;;;17.65;4.75;;;;;;;5.11;65.29;100180.22;2619400;39;20519;-66
2022/01/30 07:54:20;;;;;;;16.25;4.65;;;;;;;5.17;65.35;100182.31;2618408;54;20561;-65
2022/01/30 07:56:49;;;;;;;14.23;4.15;;;;;;;5.15;65.17;100179.84;2618862;54;20086;-64
2022/01/30 07:59:23;;;;;;;14.82;3.80;;;;;;;5.18;64.90;100190.09;2619374;54;20050;-64
2022/01/30 08:01:53;;;;;;;13.50;3.25;;;;;;;5.22;64.96;100199.38;2619158;54;20034;-65
2022/01/30 08:04:23;;;;;;;14.63;3.85;;;;;;;5.28;64.92;100198.03;2619074;54;20538;-66
2022/01/30 08:06:53;;;;;;;16.77;3.22;;;;;;;5.32;64.44;100199.44;2618709;54;20035;-66
2022/01/30 08:09:27;;;;;;;12.80;2.38;;;;;;;5.37;64.55;100210.38;2619269;54;20035;-66
2022/01/30 08:11:57;;;;;;;16.75;4.20;;;;;;;5.49;64.76;100205.94;2619062;54;20082;-66
2022/01/30 08:14:29;;;;;;;15.70;3.22;;;;;;;5.57;64.90;100203.50;2619141;54;20042;-66
2022/01/30 08:16:59;;;;;;;19.75;3.45;;;;;;;5.59;64.38;100206.84;2619031;54;20038;-66
2022/01/30 08:19:29;;;;;;;14.52;3.05;;;;;;;5.61;64.44;100214.59;2619401;54;20046;-65
2022/01/30 08:22:04;;;;;;;16.83;3.33;;;;;;;5.56;63.57;100216.75;2621931;54;20031;-66
2022/01/30 08:24:33;;;;;;;14.90;3.72;;;;;;;5.57;63.75;100211.38;2620393;54;20031;-65
2022/01/30 08:27:03;;;;;;;13.27;3.40;;;;;;;5.61;64.46;100206.72;2618904;47;20099;-66
2022/01/30 08:29:35;;;;;;;14.75;3.97;;;;;;;5.60;64.89;100205.06;2619898;39;20407;-66
2022/01/30 08:32:11;;;;;;;14.85;4.20;;;;;;;5.60;65.39;100202.44;2618895;54;20047;-65
2022/01/30 08:34:41;;;;;;;17.00;4.90;;;;;;;5.62;65.93;100203.97;2619133;54;20056;-66
2022/01/30 08:37:11;;;;;;;19.85;5.78;;;;;;;5.66;66.55;100204.53;2618824;54;20038;-66
2022/01/30 08:39:41;;;;;;;18.23;7.78;;;;;;;5.63;66.48;100210.91;2618924;54;20132;-66
2022/01/30 08:42:11;;;;;;;19.38;6.45;;;;;;;5.65;67.02;100216.00;2619056;54;20030;-65
2022/01/30 08:44:43;;;;;;;17.73;5.47;;;;;;;5.64;67.51;100216.97;2618891;54;20039;-65
2022/01/30 08:47:12;;;;;;;14.10;4.15;;;;;;;5.70;67.52;100214.66;2619744;39;20089;-65
2022/01/30 08:49:42;;;;;;;19.27;5.75;;;;;;;5.74;67.32;100222.28;2619523;54;20034;-65
2022/01/30 08:52:16;;;;;;;19.77;4.55;;;;;;;5.78;66.79;100218.44;2619672;54;20042;-65
2022/01/30 08:54:45;;;;;;;14.82;4.20;;;;;;;5.81;67.29;100216.41;2619183;54;20053;-64
2022/01/30 08:57:15;;;;;;;15.57;4.43;;;;;;;5.79;67.29;100218.31;2618820;54;20033;-64
2022/01/30 08:59:47;;;;;;;16.00;4.50;;;;;;;5.85;67.79;100214.34;2618879;54;20042;-64
2022/01/30 09:02:18;;;;;;;13.93;4.35;;;;;;;5.91;67.73;100219.91;2618935;54;20077;-63
2022/01/30 09:04:48;;;;;;;13.68;4.45;;;;;;;5.95;67.59;100213.47;2619897;31;20482;-65
2022/01/30 09:07:17;;;;;;;19.05;5.30;;;;;;;6.02;67.40;100210.34;2618885;54;20606;-64
2022/01/30 09:09:47;;;;;;;12.77;3.47;;;;;;;6.02;66.48;100211.19;2620579;54;20034;-66
2022/01/30 09:12:17;;;;;;;16.63;3.63;;;;;;;6.03;65.77;100215.47;2620285;54;20082;-66
2022/01/30 09:14:51;;;;;;;14.02;3.95;;;;;;;6.09;65.36;100222.84;2619597;39;20458;-65
2022/01/30 09:17:22;;;;;;;16.85;4.63;;;;;;;6.14;65.65;100222.44;2619262;31;20471;-66
2022/01/30 09:19:52;;;;;;;18.27;5.35;;;;;;;6.07;65.09;100242.28;2618617;54;20030;-64
2022/01/30 09:22:21;;;;;;;16.05;3.25;;;;;;;5.95;63.34;100217.91;2618629;54;20027;-63
2022/01/30 09:24:51;;;;;;;11.98;3.80;;;;;;;5.94;62.45;100224.94;2618799;54;20082;-65
2022/01/30 09:27:21;;;;;;;9.85;3.28;;;;;;;5.95;62.58;100231.00;2618347;39;20419;-66
2022/01/30 09:29:53;;;;;;;16.38;3.80;;;;;;;6.02;62.59;100218.22;2618617;54;20068;-63
2022/01/30 09:32:23;;;;;;;14.88;4.30;;;;;;;6.12;62.96;100217.34;2618622;54;20103;-66
2022/01/30 09:34:53;;;;;;;15.98;4.00;;;;;;;6.28;63.79;100221.25;2617829;54;20584;-64
2022/01/30 09:37:22;;;;;;;12.43;4.40;;;;;;;6.33;63.44;100219.94;2618605;54;20085;-65
2022/01/30 09:39:52;;;;;;;14.63;3.40;;;;;;;6.33;62.61;100214.69;2618578;54;20026;-65
2022/01/30 09:42:25;;;;;;;10.32;3.05;;;;;;;6.28;61.73;100214.22;2618524;54;20060;-64
2022/01/30 09:45:03;;;;;;;15.25;4.60;;;;;;;6.25;61.70;100211.88;2618566;54;20606;-66
2022/01/30 09:47:33;;;;;;;17.05;3.65;;;;;;;6.23;61.91;100212.94;2618829;54;20045;-64
2022/01/30 09:50:05;;;;;;;19.20;4.82;;;;;;;6.33;62.21;100212.06;2618419;54;20082;-65
2022/01/30 09:52:36;;;;;;;15.13;4.40;;;;;;;6.41;62.63;100209.59;2618617;54;20038;-64
2022/01/30 09:55:08;;;;;;;14.77;4.43;;;;;;;6.41;62.46;100214.03;2618022;54;20151;-65
2022/01/30 09:57:38;;;;;;;19.02;5.00;;;;;;;6.36;62.77;100222.28;2619031;54;20045;-64
2022/01/30 10:00:12;;;;;;;15.77;5.07;;;;;;;6.44;62.79;100214.56;2619573;47;20056;-65
2022/01/30 10:02:43;;;;;;;11.68;3.60;;;;;;;6.57;62.84;100219.63;2618712;54;20067;-64
2022/01/30 10:05:18;;;;;;;16.55;4.32;;;;;;;6.66;62.70;100220.63;2618493;54;20022;-65
2022/01/30 10:07:51;;;;;;;12.20;3.58;;;;;;;6.84;62.90;100219.00;2618328;54;20138;-65
2022/01/30 10:10:24;;;;;;;16.15;4.47;;;;;;;6.86;62.67;100218.88;2618335;54;20034;-65
2022/01/30 10:13:08;;;;;;;17.85;4.32;;;;;;;6.84;62.33;100212.91;2617794;54;20038;-65
2022/01/30 10:15:56;;;;;;;13.45;3.45;;;;;;;6.90;62.82;100210.59;2618095;54;20042;-65
2022/01/30 10:18:31;;;;;;;13.20;3.75;;;;;;;6.98;61.93;100217.81;2617691;47;20057;-65
2022/01/30 10:21:01;;;;;;;14.00;4.18;;;;;;;7.03;61.93;100199.84;2618562;54;20038;-66
2022/01/30 10:23:35;;;;;;;17.15;4.25;;;;;;;6.95;61.81;100199.69;2618469;54;20578;-65
2022/01/30 10:26:08;;;;;;;14.90;3.95;;;;;;;6.91;61.42;100185.97;2617939;54;20970;-66
2022/01/30 10:28:38;;;;;;;13.68;3.80;;;;;;;6.91;61.68;100188.59;2619015;39;20191;-66
2022/01/30 10:31:11;;;;;;;18.25;3.80;;;;;;;7.06;61.73;100185.56;2618591;54;20546;-65
2022/01/30 10:33:45;;;;;;;18.88;3.95;;;;;;;7.14;61.86;100183.09;2618493;54;20045;-66
2022/01/30 10:36:19;;;;;;;15.05;3.80;;;;;;;7.20;61.15;100188.63;2619074;54;20042;-66
2022/01/30 10:39:03;;;;;;;14.15;4.10;;;;;;;7.35;60.50;100194.34;2621598;47;20038;-66
2022/01/30 10:41:37;;;;;;;16.13;4.13;;;;;;;7.59;59.87;100179.91;2622916;54;20039;-66
2022/01/30 10:44:08;;;;;;;12.52;2.95;;;;;;;7.63;59.45;100182.16;2622313;54;20034;-66
2022/01/30 10:46:45;;;;;;;13.98;3.67;;;;;;;7.51;58.84;100185.03;2622347;54;20026;-65
2022/01/30 10:49:17;;;;;;;11.18;3.65;;;;;;;7.36;59.31;100185.47;2622512;54;20082;-66
2022/01/30 10:51:54;;;;;;;12.02;3.35;;;;;;;7.35;59.60;100186.44;2622729;54;20034;-66
2022/01/30 10:54:26;;;;;;;14.95;3.83;;;;;;;7.35;59.31;100188.25;2622564;54;20038;-65
2022/01/30 10:57:04;;;;;;;12.57;3.08;;;;;;;7.28;59.45;100197.66;2623046;54;20044;-65
2022/01/30 10:59:34;;;;;;;16.67;3.40;;;;;;;7.17;59.58;100180.19;2620637;39;20434;-64
2022/01/30 11:02:16;;;;;;;12.30;3.25;;;;;;;7.20;59.90;100182.56;2623550;54;20034;-65
2022/01/30 11:04:48;;;;;;;14.18;3.83;;;;;;;7.22;59.64;100177.13;2624674;54;20034;-66
2022/01/30 11:07:21;;;;;;;12.93;3.20;;;;;;;7.24;59.72;100177.84;2623090;54;20014;-65
2022/01/30 11:10:01;;;;;;;12.00;3.13;;;;;;;7.25;59.62;100180.34;2619318;54;20027;-64
2022/01/30 11:12:39;;;;;;;13.52;3.08;;;;;;;7.26;59.50;100178.53;2619219;39;20437;-64
2022/01/30 11:15:22;;;;;;;14.40;3.60;;;;;;;7.28;60.15;100161.66;2618443;54;20110;-65
2022/01/30 11:17:56;;;;;;;11.32;3.20;;;;;;;7.20;59.68;100164.13;2618731;54;20055;-66
2022/01/30 11:20:26;;;;;;;12.63;2.97;;;;;;;7.21;59.26;100163.16;2617880;54;20042;-66
2022/01/30 11:23:01;;;;;;;13.00;3.65;;;;;;;7.27;59.53;100167.88;2619031;54;20038;-65
2022/01/30 11:25:35;;;;;;;12.98;4.32;;;;;;;7.32;59.13;100151.69;2618559;54;20554;-66
2022/01/30 11:28:06;;;;;;;8.73;3.17;;;;;;;7.18;59.21;100161.66;2618474;54;20042;-65
2022/01/30 11:30:52;;;;;;;9.85;3.78;;;;;;;7.20;59.09;100164.13;2618592;54;20044;-64
2022/01/30 11:33:24;;;;;;;14.60;3.90;;;;;;;7.25;59.41;100166.34;2618519;46;20066;-65
2022/01/30 11:35:55;;;;;;;16.00;3.70;;;;;;;7.20;59.36;100169.41;2619322;54;20026;-66
2022/01/30 11:38:25;;;;;;;9.30;3.28;;;;;;;7.33;59.52;100158.59;2618882;54;20030;-66
2022/01/30 11:41:14;;;;;;;14.98;3.30;;;;;;;7.33;59.63;100164.69;2619315;54;20141;-65
2022/01/30 11:44:19;;;;;;;12.65;4.28;;;;;;;7.29;59.32;100170.38;2618698;54;20034;-65
2022/01/30 11:47:25;;;;;;;9.93;2.97;;;;;;;7.33;59.02;100161.22;2619266;54;20043;-65
2022/01/30 11:50:11;;;;;;;12.25;3.25;;;;;;;7.32;59.06;100163.03;2618065;54;20051;-65
2022/01/30 11:53:00;;;;;;;15.20;3.00;;;;;;;7.31;58.34;100157.94;2618353;39;20382;-66
2022/01/30 11:55:49;;;;;;;14.93;3.03;;;;;;;7.35;57.69;100154.06;2617718;47;20061;-65
2022/01/30 11:58:54;;;;;;;10.52;3.13;;;;;;;7.48;57.33;100164.28;2618181;54;20054;-63
2022/01/30 12:01:38;;;;;;;10.90;3.05;;;;;;;7.55;56.90;100158.34;2617990;54;20047;-65
2022/01/30 12:04:14;;;;;;;12.70;2.80;;;;;;;7.51;55.71;100159.59;2617817;54;20030;-65
2022/01/30 12:06:50;;;;;;;8.68;3.08;;;;;;;7.52;55.58;100148.06;2618611;54;20038;-65
2022/01/30 12:09:29;;;;;;;9.48;2.47;;;;;;;7.43;55.18;100141.84;2619089;54;20049;-65
2022/01/30 12:12:19;;;;;;;9.77;2.60;;;;;;;7.43;54.17;100141.84;2619083;54;20046;-64
2022/01/30 12:14:49;;;;;;;10.15;2.60;;;;;;;7.58;53.69;100136.16;2618777;54;20113;-64
2022/01/30 12:17:47;;;;;;;8.20;2.38;;;;;;;7.45;53.48;100139.91;2618922;54;20190;-67
2022/01/30 12:20:17;;;;;;;9.63;2.20;;;;;;;7.46;52.99;100132.84;2619179;54;20029;-63
2022/01/30 12:22:50;;;;;;;7.93;2.70;;;;;;;7.47;53.25;100139.78;2619139;54;20034;-64
2022/01/30 12:25:42;;;;;;;13.93;2.55;;;;;;;7.45;52.84;100133.81;2621049;54;20050;-64
2022/01/30 12:28:15;;;;;;;7.70;3.10;;;;;;;7.36;53.03;100138.13;2618345;47;20027;-66
2022/01/30 12:33:43;;;;;;;11.90;3.30;;;;;;;7.66;52.25;100137.09;2618057;54;20066;-73
2022/01/30 12:36:22;;;;;;;8.57;2.92;;;;;;;7.73;52.68;100120.75;2618419;54;20026;-72
2022/01/30 12:39:04;;;;;;;11.23;3.53;;;;;;;7.88;52.50;100125.44;2619365;54;20030;-72
2022/01/30 12:41:35;;;;;;;13.93;3.67;;;;;;;7.89;52.02;100124.44;2620043;47;20647;-72
2022/01/30 12:44:07;;;;;;;9.25;2.72;;;;;;;7.94;52.21;100118.75;2620287;54;20042;-73
2022/01/30 12:46:45;;;;;;;8.57;2.80;;;;;;;7.92;51.55;100112.81;2621610;54;20074;-75
2022/01/30 12:49:19;;;;;;;10.90;2.92;;;;;;;7.95;51.39;100105.44;2620352;54;20034;-74
2022/01/30 12:51:51;;;;;;;9.40;3.03;;;;;;;7.99;51.49;100107.78;2620930;39;20423;-72
2022/01/30 12:54:25;;;;;;;11.90;3.22;;;;;;;8.09;51.10;100098.88;2619223;47;20030;-73